Time;durP1;ratioP1;P1;durP2;ratioP2;P2;SDS_P1;SDS_P2;PMS_P1;PMS_P2;Temp;Humidity;BMP_temperature;BMP_pressure;BME280_temperature;BME280_humidity;BME280_pressure;Samples;Min_cycle;Max_cycle;Signal;HPM_P1;HPM_P2
2024/01/02 00:01:40;;;;;;;54.35;8.32;;;;;;;-144.73;100.00;54690.97;5028169;28;20030;-74
2024/01/02 00:04:07;;;;;;;36.40;6.68;;;;;;;-144.73;100.00;54678.63;5029068;28;20113;-74
2024/01/02 00:06:32;;;;;;;31.63;6.60;;;;;;;-144.73;100.00;54707.38;5030512;28;20026;-75
2024/01/02 00:08:57;;;;;;;34.83;6.68;;;;;;;-144.73;100.00;54703.28;5029059;28;20088;-74
2024/01/02 00:11:23;;;;;;;43.53;7.30;;;;;;;-144.73;100.00;54713.53;5029457;28;20037;-73
2024/01/02 00:13:48;;;;;;;48.03;7.95;;;;;;;-144.73;100.00;54715.59;5029077;28;20079;-73
2024/01/02 00:16:17;;;;;;;42.63;7.85;;;;;;;-144.73;100.00;54674.53;5028363;28;20476;-74
2024/01/02 00:18:43;;;;;;;37.67;8.13;;;;;;;-144.73;100.00;54699.16;5027158;28;20038;-74
2024/01/02 00:21:08;;;;;;;38.83;7.25;;;;;;;-144.73;100.00;54715.59;5029018;28;20025;-74
2024/01/02 00:23:34;;;;;;;35.53;6.45;;;;;;;-144.73;100.00;54760.75;5028056;28;20036;-74
2024/01/02 00:25:59;;;;;;;45.53;7.72;;;;;;;-144.73;100.00;54707.38;5029433;28;20029;-74
2024/01/02 00:28:24;;;;;;;43.35;7.25;;;;;;;-144.73;100.00;54723.81;5025849;28;20044;-74
2024/01/02 00:30:50;;;;;;;52.38;9.68;;;;;;;-144.73;100.00;54707.38;5030590;28;20026;-74
2024/01/02 00:33:15;;;;;;;44.67;8.77;;;;;;;-144.73;100.00;54682.75;5028629;28;20037;-74
2024/01/02 00:35:41;;;;;;;42.13;8.13;;;;;;;-144.73;100.00;54768.97;5028526;28;20026;-74
2024/01/02 00:38:09;;;;;;;46.65;9.32;;;;;;;-144.73;100.00;54732.00;5025860;28;20033;-74
2024/01/02 00:40:35;;;;;;;33.00;8.18;;;;;;;-144.73;100.00;54736.13;5028521;28;20022;-74
2024/01/02 00:43:00;;;;;;;47.30;8.38;;;;;;;-144.73;100.00;54711.47;5028323;28;20550;-74
2024/01/02 00:45:26;;;;;;;56.90;10.25;;;;;;;-144.73;100.00;54736.13;5029275;28;20017;-74
2024/01/02 00:47:51;;;;;;;51.47;10.60;;;;;;;-144.73;100.00;54711.47;5028804;28;20079;-74
2024/01/02 00:50:17;;;;;;;63.22;9.55;;;;;;;-144.73;100.00;54736.13;5029347;28;20029;-74
2024/01/02 00:52:43;;;;;;;44.83;8.18;;;;;;;-144.73;100.00;54729.97;5028052;28;20051;-73
2024/01/02 00:55:09;;;;;;;48.72;9.15;;;;;;;-144.73;100.00;54719.69;5029140;28;20021;-73
2024/01/02 00:57:34;;;;;;;49.10;8.93;;;;;;;-144.73;100.00;54707.38;5028263;28;20024;-73
2024/01/02 01:00:00;;;;;;;51.25;9.18;;;;;;;-144.73;100.00;54732.00;5029452;28;20071;-74
2024/01/02 01:02:25;;;;;;;39.45;8.25;;;;;;;-144.73;100.00;54736.13;5024025;28;20021;-74
2024/01/02 01:04:51;;;;;;;52.90;9.43;;;;;;;-144.73;100.00;54727.91;5029764;28;20072;-73
2024/01/02 01:07:19;;;;;;;56.38;9.13;;;;;;;-144.73;100.00;54686.84;5028788;28;20092;-74
2024/01/02 01:09:44;;;;;;;60.80;9.57;;;;;;;-144.73;100.00;54678.63;5028769;28;20029;-75
2024/01/02 01:12:10;;;;;;;62.83;9.57;;;;;;;-144.73;100.00;54727.91;5021910;28;20426;-75
2024/01/02 01:14:35;;;;;;;52.88;10.05;;;;;;;-144.73;100.00;54721.75;5017624;28;20136;-74
2024/01/02 01:17:01;;;;;;;47.42;9.60;;;;;;;-144.73;100.00;54736.13;5011221;28;20053;-74
2024/01/02 01:19:27;;;;;;;48.17;9.38;;;;;;;-144.73;100.00;54715.59;5018090;28;20030;-74
2024/01/02 01:21:52;;;;;;;56.05;9.88;;;;;;;-144.73;100.00;54721.75;5022119;28;20032;-74
2024/01/02 01:24:18;;;;;;;42.50;8.35;;;;;;;-144.73;100.00;54695.06;5028229;28;20044;-74
2024/01/02 01:26:44;;;;;;;44.25;8.52;;;;;;;-144.73;100.00;54686.84;5027230;28;20044;-74
2024/01/02 01:29:10;;;;;;;46.75;9.77;;;;;;;-144.73;100.00;54723.81;5027110;28;20055;-74
2024/01/02 01:31:35;;;;;;;42.03;8.18;;;;;;;-144.73;100.00;54744.31;5029436;28;20044;-75
2024/01/02 01:34:01;;;;;;;47.17;9.35;;;;;;;-144.73;100.00;54699.16;5028203;28;20117;-75
2024/01/02 01:36:26;;;;;;;52.92;9.68;;;;;;;-144.73;100.00;54695.06;5022033;28;20040;-74
2024/01/02 01:38:52;;;;;;;65.45;9.85;;;;;;;-144.73;100.00;54736.13;5028425;28;20041;-74
2024/01/02 01:41:18;;;;;;;52.55;9.85;;;;;;;-144.73;100.00;54727.91;5029593;28;20526;-75
2024/01/02 01:43:44;;;;;;;56.30;8.07;;;;;;;-144.73;100.00;54725.84;5027864;28;20407;-74
2024/01/02 01:46:14;;;;;;;43.65;9.88;;;;;;;-144.73;100.00;54682.75;5028875;28;20033;-74
2024/01/02 01:48:40;;;;;;;51.80;10.02;;;;;;;-144.73;100.00;54686.84;5028909;28;20030;-74
2024/01/02 01:51:06;;;;;;;60.53;9.45;;;;;;;-144.73;100.00;54727.91;5029443;28;20021;-73
2024/01/02 01:53:32;;;;;;;47.42;9.20;;;;;;;-144.73;100.00;54707.38;5031875;28;20026;-74
2024/01/02 01:55:58;;;;;;;57.20;8.98;;;;;;;-144.73;100.00;54727.91;5048901;28;20029;-74
2024/01/02 01:58:25;;;;;;;52.47;9.80;;;;;;;-144.73;100.00;54711.47;5031481;28;20033;-74
2024/01/02 02:00:51;;;;;;;62.70;9.85;;;;;;;-144.73;100.00;54674.53;5031046;28;20040;-74
2024/01/02 02:03:18;;;;;;;79.25;11.18;;;;;;;-144.73;100.00;54699.16;5031150;28;20033;-73
2024/01/02 02:05:47;;;;;;;51.05;9.75;;;;;;;-144.73;100.00;54695.06;5031904;28;20041;-73
2024/01/02 02:08:13;;;;;;;48.25;9.40;;;;;;;-144.73;100.00;54711.47;5031031;28;20037;-74
2024/01/02 02:10:39;;;;;;;57.03;9.45;;;;;;;-144.73;100.00;54703.28;5031975;28;20017;-74
2024/01/02 02:13:04;;;;;;;62.50;9.70;;;;;;;-144.73;100.00;54727.91;5031012;28;20112;-74
2024/01/02 02:15:29;;;;;;;48.30;10.25;;;;;;;-144.73;100.00;54744.31;5032964;28;20020;-74
2024/01/02 02:17:55;;;;;;;72.00;10.93;;;;;;;-144.73;100.00;54682.75;5028826;28;20511;-74
2024/01/02 02:20:20;;;;;;;48.05;8.13;;;;;;;-144.73;100.00;54719.69;5031563;28;20022;-74
2024/01/02 02:22:49;;;;;;;76.80;12.07;;;;;;;-144.73;100.00;54729.97;5031086;28;20480;-74
2024/01/02 02:25:18;;;;;;;65.28;11.50;;;;;;;-144.73;100.00;54686.84;5031381;28;20021;-75
2024/01/02 02:27:49;;;;;;;41.42;8.15;;;;;;;-144.73;100.00;54670.44;5019591;28;20029;-75
2024/01/02 02:30:15;;;;;;;59.90;9.50;;;;;;;-144.73;100.00;54719.69;5032526;28;20063;-73
2024/01/02 02:32:44;;;;;;;75.55;10.40;;;;;;;-144.73;100.00;54703.28;5021256;28;20030;-73
2024/01/02 02:35:09;;;;;;;61.60;9.80;;;;;;;-144.73;100.00;54715.59;5012127;28;20021;-74
2024/01/02 02:37:35;;;;;;;66.05;10.52;;;;;;;-144.73;100.00;54715.59;5015390;28;20022;-73
2024/01/02 02:40:00;;;;;;;59.20;12.70;;;;;;;-144.73;100.00;54703.28;5028674;28;20026;-74
2024/01/02 02:42:25;;;;;;;55.28;9.90;;;;;;;-144.73;100.00;54695.06;5024218;28;20049;-73
2024/01/02 02:44:51;;;;;;;51.05;10.60;;;;;;;-144.73;100.00;54723.81;5032028;28;20128;-74
2024/01/02 02:47:16;;;;;;;52.20;11.23;;;;;;;-144.73;100.00;54721.75;5031707;28;20026;-73
2024/01/02 02:49:42;;;;;;;57.13;11.07;;;;;;;-144.73;100.00;54721.75;5032015;28;20232;-73
2024/01/02 02:52:08;;;;;;;62.67;12.30;;;;;;;-144.73;100.00;54715.59;5030929;28;20032;-75
2024/01/02 02:54:33;;;;;;;61.50;10.07;;;;;;;-144.73;100.00;54711.47;5030500;28;20033;-73
2024/01/02 02:56:59;;;;;;;60.60;11.15;;;;;;;-144.73;100.00;54715.59;5031095;28;20021;-73
2024/01/02 02:59:24;;;;;;;54.45;10.48;;;;;;;-144.73;100.00;54723.81;5031586;28;20043;-73
2024/01/02 03:01:50;;;;;;;57.17;10.85;;;;;;;-144.73;100.00;54703.28;5029129;28;20037;-73
2024/01/02 03:04:15;;;;;;;64.60;11.90;;;;;;;-144.73;100.00;54711.47;5029419;28;20033;-73
2024/01/02 03:06:40;;;;;;;56.90;11.13;;;;;;;-144.73;100.00;54695.06;5031182;28;20021;-74
2024/01/02 03:09:06;;;;;;;61.85;13.48;;;;;;;-144.73;100.00;54688.91;5030101;28;20033;-73
2024/01/02 03:11:31;;;;;;;50.95;10.43;;;;;;;-144.73;100.00;54695.06;5030804;28;20027;-73
2024/01/02 03:13:57;;;;;;;47.03;10.90;;;;;;;-144.73;100.00;54703.28;5047078;28;20037;-73
2024/01/02 03:16:23;;;;;;;47.15;10.80;;;;;;;-144.73;100.00;54711.47;5030627;28;20028;-73
2024/01/02 03:18:48;;;;;;;57.08;10.55;;;;;;;-144.73;100.00;54703.28;5030416;28;20488;-73
2024/01/02 03:21:14;;;;;;;49.42;9.98;;;;;;;-144.73;100.00;54690.97;5036850;28;20025;-73
2024/01/02 03:23:40;;;;;;;69.03;12.93;;;;;;;-144.73;100.00;54732.00;5015105;28;20034;-74
2024/01/02 03:26:05;;;;;;;60.83;10.50;;;;;;;-144.73;100.00;54707.38;5013157;28;20144;-74
2024/01/02 03:28:31;;;;;;;53.38;10.75;;;;;;;-144.73;100.00;54711.47;5010959;28;20053;-73
2024/01/02 03:30:57;;;;;;;51.38;11.25;;;;;;;-144.73;100.00;54748.44;5027779;28;20022;-74
2024/01/02 03:33:22;;;;;;;57.35;11.02;;;;;;;-144.73;100.00;54699.16;5027145;28;20496;-74
2024/01/02 03:35:47;;;;;;;58.00;10.10;;;;;;;-144.73;100.00;54727.91;5029452;28;20104;-73
2024/01/02 03:38:13;;;;;;;47.42;11.15;;;;;;;-144.73;100.00;54740.22;5029343;28;20103;-73
2024/01/02 03:40:39;;;;;;;57.08;11.02;;;;;;;-144.73;100.00;54732.00;5030298;28;20025;-73
2024/01/02 03:43:05;;;;;;;71.47;10.88;;;;;;;-144.73;100.00;54715.59;5029418;28;20117;-74
2024/01/02 03:45:30;;;;;;;49.60;10.52;;;;;;;-144.73;100.00;54715.59;5029964;28;20025;-74
2024/01/02 03:47:56;;;;;;;46.20;9.75;;;;;;;-144.73;100.00;54723.81;5029486;28;20034;-73
2024/01/02 03:50:21;;;;;;;47.40;11.57;;;;;;;-144.73;100.00;54781.28;5030129;28;20121;-73
2024/01/02 03:52:46;;;;;;;49.38;9.57;;;;;;;-144.73;100.00;54732.00;5029160;28;20029;-74
2024/01/02 03:55:12;;;;;;;56.30;11.27;;;;;;;-144.73;100.00;54703.28;5030966;28;20032;-74
2024/01/02 03:57:37;;;;;;;52.72;9.73;;;;;;;-144.73;100.00;54732.00;5046101;28;20017;-74
2024/01/02 04:00:04;;;;;;;56.67;9.82;;;;;;;-144.73;100.00;54723.81;5029391;28;20022;-74
2024/01/02 04:02:30;;;;;;;57.00;10.77;;;;;;;-144.73;100.00;54727.91;5019264;28;20075;-74
2024/01/02 04:04:55;;;;;;;49.63;8.90;;;;;;;-144.73;100.00;54711.47;5010880;28;20022;-74
2024/01/02 04:07:22;;;;;;;46.78;9.02;;;;;;;-144.73;100.00;54748.44;5011590;28;20029;-74
2024/01/02 04:09:47;;;;;;;47.80;10.52;;;;;;;-144.73;100.00;54693.00;5010066;28;20026;-74
2024/01/02 04:12:13;;;;;;;61.13;9.35;;;;;;;-144.73;100.00;54744.31;5021426;28;20052;-74
2024/01/02 04:14:38;;;;;;;54.90;8.45;;;;;;;-144.73;100.00;54686.84;5024471;28;20057;-73
2024/01/02 04:17:03;;;;;;;52.10;9.30;;;;;;;-144.73;100.00;54729.97;5029978;28;20111;-73
2024/01/02 04:19:29;;;;;;;47.38;8.23;;;;;;;-144.73;100.00;54752.53;5029801;28;20030;-73
2024/01/02 04:21:54;;;;;;;55.72;8.60;;;;;;;-144.73;100.00;54744.31;5030333;28;20515;-74
2024/01/02 04:24:19;;;;;;;47.83;7.72;;;;;;;-144.73;100.00;54719.69;5029445;28;20104;-74
2024/01/02 04:26:45;;;;;;;52.17;8.00;;;;;;;-144.73;100.00;54736.13;5027548;28;20025;-74
2024/01/02 04:29:10;;;;;;;48.58;7.75;;;;;;;-144.73;100.00;54699.16;5028596;28;20040;-74
2024/01/02 04:31:35;;;;;;;45.92;8.77;;;;;;;-144.73;100.00;54723.81;5029117;28;20017;-74
2024/01/02 04:34:01;;;;;;;35.03;7.45;;;;;;;-144.73;100.00;54711.47;5028831;28;20033;-75
2024/01/02 04:36:26;;;;;;;38.97;7.57;;;;;;;-144.73;100.00;54705.31;5027318;28;20041;-74
2024/01/02 04:38:52;;;;;;;34.35;7.00;;;;;;;-144.73;100.00;54715.59;5028870;28;20052;-74
2024/01/02 04:41:18;;;;;;;34.70;7.57;;;;;;;-144.73;100.00;54768.97;5029014;28;20025;-74
2024/01/02 04:43:44;;;;;;;48.35;7.82;;;;;;;-144.73;100.00;54711.47;5014249;28;20069;-74
2024/01/02 04:46:10;;;;;;;34.13;6.40;;;;;;;-144.73;100.00;54717.66;5009081;28;20057;-73
2024/01/02 04:48:35;;;;;;;39.83;6.15;;;;;;;-144.73;100.00;54705.31;5009896;28;20516;-74
2024/01/02 04:51:01;;;;;;;42.65;6.63;;;;;;;-144.73;100.00;54703.28;5016320;28;20116;-74
2024/01/02 04:53:26;;;;;;;28.60;6.20;;;;;;;-144.73;100.00;54742.28;5027237;28;20079;-74
2024/01/02 04:55:51;;;;;;;43.22;7.38;;;;;;;-144.73;100.00;54727.91;5029484;28;20128;-74
2024/01/02 04:58:17;;;;;;;39.28;6.20;;;;;;;-144.73;100.00;54676.59;5028428;28;20033;-74
2024/01/02 05:00:42;;;;;;;48.17;7.70;;;;;;;-144.73;100.00;54686.84;5029433;28;20021;-74
2024/01/02 05:03:07;;;;;;;31.85;6.28;;;;;;;-144.73;100.00;54711.47;5022562;28;20067;-73
2024/01/02 05:05:33;;;;;;;34.13;6.78;;;;;;;-144.73;100.00;54727.91;5028879;28;20030;-74
2024/01/02 05:07:58;;;;;;;34.65;5.80;;;;;;;-144.73;100.00;54719.69;5028587;28;20036;-73
2024/01/02 05:10:24;;;;;;;34.13;5.97;;;;;;;-144.73;100.00;54766.91;5028869;28;20040;-73
2024/01/02 05:12:50;;;;;;;43.90;6.70;;;;;;;-144.73;100.00;54723.81;5025337;28;20037;-73
2024/01/02 05:15:17;;;;;;;40.53;6.85;;;;;;;-144.73;100.00;54736.13;5028186;28;20053;-74
2024/01/02 05:17:42;;;;;;;36.50;7.03;;;;;;;-144.73;100.00;54752.53;5017926;28;20029;-74
2024/01/02 05:20:08;;;;;;;43.92;5.97;;;;;;;-144.73;100.00;54744.31;5010835;28;20019;-74
2024/01/02 05:22:34;;;;;;;31.33;6.40;;;;;;;-144.73;100.00;54736.13;5010806;28;20024;-74
2024/01/02 05:25:00;;;;;;;42.08;6.57;;;;;;;-144.73;100.00;54719.69;5021135;28;20045;-73
2024/01/02 05:27:25;;;;;;;42.05;5.70;;;;;;;-144.73;100.00;54695.06;5028778;28;20055;-74
2024/01/02 05:29:51;;;;;;;47.25;6.65;;;;;;;-144.73;100.00;54711.47;5032308;28;20075;-73
2024/01/02 05:32:16;;;;;;;31.13;5.70;;;;;;;-144.73;100.00;54732.00;5032062;28;20025;-74
2024/01/02 05:34:42;;;;;;;38.67;6.07;;;;;;;-144.73;100.00;54736.13;5033311;28;20034;-73
2024/01/02 05:37:09;;;;;;;33.50;5.65;;;;;;;-144.73;100.00;54721.75;5030393;28;20045;-75
2024/01/02 05:39:35;;;;;;;42.47;6.05;;;;;;;-144.73;100.00;54682.75;5029151;28;20593;-73
2024/01/02 05:42:00;;;;;;;44.88;6.25;;;;;;;-144.73;100.00;54707.38;5024944;28;20041;-74
2024/01/02 05:44:25;;;;;;;32.55;5.50;;;;;;;-144.73;100.00;54682.75;5031638;28;20095;-74
2024/01/02 05:46:51;;;;;;;25.05;5.20;;;;;;;-144.73;100.00;54695.06;5032643;28;20448;-73
2024/01/02 05:49:19;;;;;;;41.38;6.07;;;;;;;-144.73;100.00;54695.06;5031965;28;20053;-73
2024/01/02 05:51:44;;;;;;;22.40;5.18;;;;;;;-144.73;100.00;54721.75;5048582;28;20044;-74
2024/01/02 05:54:10;;;;;;;37.03;6.05;;;;;;;-144.73;100.00;54715.59;5048143;28;20090;-73
2024/01/02 05:56:36;;;;;;;33.95;4.50;;;;;;;-144.73;100.00;54699.16;5032203;28;20048;-74
2024/01/02 05:59:01;;;;;;;35.72;5.70;;;;;;;-144.73;100.00;54703.28;5031517;28;20049;-75
2024/01/02 06:01:26;;;;;;;32.92;6.63;;;;;;;-144.73;100.00;54695.06;5030677;28;20384;-73
2024/01/02 06:03:52;;;;;;;22.65;4.38;;;;;;;-144.73;100.00;54686.84;5031831;28;20106;-73
2024/01/02 06:06:17;;;;;;;33.83;4.95;;;;;;;-144.73;100.00;54711.47;5031815;28;20022;-74
2024/01/02 06:08:43;;;;;;;33.92;5.18;;;;;;;-144.73;100.00;54654.00;5031519;28;20041;-74
2024/01/02 06:11:10;;;;;;;28.42;5.63;;;;;;;-144.73;100.00;54736.13;5031596;28;20025;-74
2024/01/02 06:13:35;;;;;;;34.40;5.60;;;;;;;-144.73;100.00;54732.00;5014198;28;20057;-74
2024/01/02 06:16:01;;;;;;;30.40;5.20;;;;;;;-144.73;100.00;54756.66;5014197;28;20119;-74
2024/01/02 06:18:26;;;;;;;28.85;4.70;;;;;;;-144.73;100.00;54754.59;5011801;28;20030;-74
2024/01/02 06:20:51;;;;;;;41.10;6.53;;;;;;;-144.73;100.00;54723.81;5021838;28;20338;-74
2024/01/02 06:23:17;;;;;;;33.17;5.75;;;;;;;-144.73;100.00;54719.69;5027556;28;20512;-75
2024/01/02 06:25:42;;;;;;;39.00;5.22;;;;;;;-144.73;100.00;54715.59;5031461;28;20025;-75
2024/01/02 06:28:07;;;;;;;26.02;5.22;;;;;;;-144.73;100.00;54686.84;5027808;28;20038;-74
2024/01/02 06:30:33;;;;;;;51.28;6.75;;;;;;;-144.73;100.00;54756.66;5032069;28;20045;-74
2024/01/02 06:32:58;;;;;;;41.22;5.75;;;;;;;-144.73;100.00;54715.59;5030833;28;20026;-74
2024/01/02 06:35:24;;;;;;;44.78;6.22;;;;;;;-144.73;100.00;54711.47;5031387;28;20523;-74
2024/01/02 06:37:49;;;;;;;46.60;5.20;;;;;;;-144.73;100.00;54727.91;5028935;28;20037;-74
2024/01/02 06:40:14;;;;;;;32.90;5.25;;;;;;;-144.73;100.00;54752.53;5031198;28;20018;-75
2024/01/02 06:42:40;;;;;;;34.67;5.30;;;;;;;-144.73;100.00;54727.91;5030538;28;20033;-75
2024/01/02 06:45:08;;;;;;;26.33;4.60;;;;;;;-144.73;100.00;54711.47;5031682;28;20058;-76
2024/01/02 06:47:37;;;;;;;39.90;6.13;;;;;;;-144.73;100.00;54715.59;5031284;28;20021;-74
2024/01/02 06:50:02;;;;;;;35.40;5.28;;;;;;;-144.73;100.00;54727.91;5031372;28;20049;-74
2024/01/02 06:52:30;;;;;;;39.03;4.97;;;;;;;-144.73;100.00;54760.75;5030750;28;20059;-75
2024/01/02 06:54:55;;;;;;;34.35;5.47;;;;;;;-144.73;100.00;54703.28;5031089;28;20044;-75
2024/01/02 06:57:21;;;;;;;30.60;6.07;;;;;;;-144.73;100.00;54703.28;5032279;28;20426;-75
2024/01/02 06:59:46;;;;;;;36.00;5.53;;;;;;;-144.73;100.00;54744.31;5030566;28;20030;-75
2024/01/02 07:02:12;;;;;;;32.72;4.43;;;;;;;-144.73;100.00;54715.59;5029361;28;20483;-75
2024/01/02 07:04:38;;;;;;;39.20;5.32;;;;;;;-144.73;100.00;54740.22;5030217;28;20025;-75
2024/01/02 07:07:03;;;;;;;32.83;5.13;;;;;;;-144.73;100.00;54746.38;5031472;28;20029;-75
2024/01/02 07:09:28;;;;;;;45.67;6.95;;;;;;;-144.73;100.00;54711.47;5031699;28;20026;-75
2024/01/02 07:11:54;;;;;;;32.70;4.97;;;;;;;-144.73;100.00;54723.81;5030701;28;20029;-74
2024/01/02 07:14:19;;;;;;;39.13;5.70;;;;;;;-144.73;100.00;54707.38;5030422;28;20053;-74
2024/01/02 07:16:45;;;;;;;44.22;5.15;;;;;;;-144.73;100.00;54732.00;5031966;28;20153;-76
2024/01/02 07:19:10;;;;;;;35.38;5.03;;;;;;;-144.73;100.00;54736.13;5029236;28;20044;-75
2024/01/02 07:21:35;;;;;;;39.35;5.00;;;;;;;-144.73;100.00;54732.00;5030038;28;20032;-74
2024/01/02 07:24:01;;;;;;;38.45;6.20;;;;;;;-144.73;100.00;54703.28;5030186;28;20551;-73
2024/01/02 07:26:26;;;;;;;39.47;5.03;;;;;;;-144.73;100.00;54721.75;5030849;28;20032;-73
2024/01/02 07:28:51;;;;;;;28.65;5.50;;;;;;;-144.73;100.00;54748.44;5043743;28;20054;-75
2024/01/02 07:31:16;;;;;;;32.80;5.65;;;;;;;-144.73;100.00;54695.06;5030985;28;20055;-75
2024/01/02 07:33:45;;;;;;;40.60;5.82;;;;;;;-144.73;100.00;54764.84;5030192;28;20041;-75
2024/01/02 07:36:10;;;;;;;43.42;6.40;;;;;;;-144.73;100.00;54711.47;5029856;28;20022;-75
2024/01/02 07:38:35;;;;;;;30.20;5.93;;;;;;;-144.73;100.00;54699.16;5029865;28;20034;-76
2024/01/02 07:41:01;;;;;;;44.72;6.55;;;;;;;-144.73;100.00;54719.69;5029515;28;20053;-76
2024/01/02 07:43:28;;;;;;;39.50;5.82;;;;;;;-144.73;100.00;54727.91;5012817;28;20068;-76
2024/01/02 07:45:55;;;;;;;39.17;6.13;;;;;;;-144.73;100.00;54719.69;5024596;28;20493;-76
2024/01/02 07:48:20;;;;;;;50.42;6.25;;;;;;;-144.73;100.00;54719.69;5022118;28;20030;-76
2024/01/02 07:50:45;;;;;;;26.83;6.22;;;;;;;-144.73;100.00;54736.13;5012380;28;20025;-76
2024/01/02 07:53:11;;;;;;;37.55;6.00;;;;;;;-144.73;100.00;54736.13;5009840;28;20156;-76
2024/01/02 07:55:36;;;;;;;38.33;5.50;;;;;;;-144.73;100.00;54719.69;5010349;28;20053;-76
2024/01/02 07:58:02;;;;;;;41.88;6.90;;;;;;;-144.73;100.00;54736.13;5010674;28;20034;-76
2024/01/02 08:00:27;;;;;;;40.25;6.07;;;;;;;-144.73;100.00;54736.13;5010707;28;20021;-75
2024/01/02 08:02:52;;;;;;;30.40;5.47;;;;;;;-144.73;100.00;54719.69;5022084;28;20040;-77
2024/01/02 08:05:18;;;;;;;33.30;5.60;;;;;;;-144.73;100.00;54781.28;5029640;28;20033;-76
2024/01/02 08:07:43;;;;;;;29.15;4.93;;;;;;;-144.73;100.00;54715.59;5029161;28;20026;-76
2024/01/02 08:10:09;;;;;;;46.20;6.97;;;;;;;-144.73;100.00;54703.28;5029923;28;20477;-76
2024/01/02 08:12:34;;;;;;;21.95;4.53;;;;;;;-144.73;100.00;54740.22;5028801;28;20104;-77
2024/01/02 08:15:01;;;;;;;31.23;5.50;;;;;;;-144.73;100.00;54740.22;5029494;28;20032;-76
2024/01/02 08:17:26;;;;;;;36.97;5.50;;;;;;;-144.73;100.00;54713.53;5028693;28;20058;-78
2024/01/02 08:19:52;;;;;;;41.20;5.90;;;;;;;-144.73;100.00;54732.00;5029261;28;20060;-77
2024/01/02 08:22:20;;;;;;;53.67;7.53;;;;;;;-144.73;100.00;54732.00;5024907;28;20031;-73
2024/01/02 08:24:46;;;;;;;37.28;5.75;;;;;;;-144.73;100.00;54707.38;5018351;28;20034;-75
2024/01/02 08:27:11;;;;;;;40.75;6.10;;;;;;;-144.73;100.00;54738.16;5042502;28;20113;-73
2024/01/02 08:29:39;;;;;;;38.60;5.78;;;;;;;-144.73;100.00;54703.28;5038516;28;20037;-73
2024/01/02 08:32:05;;;;;;;36.95;6.18;;;;;;;-144.73;100.00;54703.28;5019952;28;20040;-74
2024/01/02 08:34:30;;;;;;;39.58;7.18;;;;;;;-144.73;100.00;54723.81;5022308;28;20029;-74
2024/01/02 08:36:56;;;;;;;31.67;5.60;;;;;;;-144.73;100.00;54670.44;5033870;28;20021;-74
2024/01/02 08:39:21;;;;;;;38.08;6.57;;;;;;;-144.73;100.00;54727.91;5015938;28;20196;-75
2024/01/02 08:41:46;;;;;;;31.95;6.55;;;;;;;-144.73;100.00;54695.06;5012888;28;20026;-74
2024/01/02 08:44:12;;;;;;;28.23;6.20;;;;;;;-144.73;100.00;54723.81;5011141;28;20062;-74
2024/01/02 08:46:38;;;;;;;43.75;6.03;;;;;;;-144.73;100.00;54732.00;5028074;28;20040;-75
2024/01/02 08:49:05;;;;;;;35.50;5.70;;;;;;;-144.73;100.00;54732.00;5026009;28;20049;-73
2024/01/02 08:51:30;;;;;;;30.00;6.43;;;;;;;-144.73;100.00;54707.38;5012346;28;20045;-71
2024/01/02 08:53:57;;;;;;;32.22;6.15;;;;;;;-144.73;100.00;54711.47;5012746;28;20437;-73
2024/01/02 08:56:22;;;;;;;26.67;5.10;;;;;;;-144.73;100.00;54764.84;5028533;28;20030;-73
2024/01/02 08:58:48;;;;;;;28.13;6.28;;;;;;;-144.73;100.00;54699.16;5018413;28;20044;-74
2024/01/02 09:01:15;;;;;;;34.03;6.43;;;;;;;-144.73;100.00;54756.66;5033796;28;20029;-74
2024/01/02 09:03:41;;;;;;;36.55;6.18;;;;;;;-144.73;100.00;54707.38;5037098;28;20408;-74
2024/01/02 09:06:07;;;;;;;21.88;5.45;;;;;;;-144.73;100.00;54707.38;5037720;28;20043;-74
2024/01/02 09:08:33;;;;;;;28.67;6.22;;;;;;;-144.73;100.00;54736.13;5036793;28;20045;-74
2024/01/02 09:10:58;;;;;;;22.15;5.05;;;;;;;-144.73;100.00;54729.97;5037187;28;20048;-73
2024/01/02 09:13:23;;;;;;;25.30;5.07;;;;;;;-144.73;100.00;54715.59;5019329;28;20037;-73
2024/01/02 09:15:49;;;;;;;37.15;5.80;;;;;;;-144.73;100.00;54744.31;5018553;28;20029;-73
2024/01/02 09:18:14;;;;;;;32.83;5.40;;;;;;;-144.73;100.00;54723.81;5034027;28;20132;-74
2024/01/02 09:20:39;;;;;;;23.63;4.90;;;;;;;-144.73;100.00;54727.91;5017372;28;20033;-73
2024/01/02 09:23:05;;;;;;;21.73;4.38;;;;;;;-144.73;100.00;54725.84;5030437;28;20037;-73
2024/01/02 09:25:35;;;;;;;24.67;5.32;;;;;;;-144.73;100.00;54725.84;5037009;28;20040;-74
2024/01/02 09:28:01;;;;;;;27.95;5.15;;;;;;;-144.73;100.00;54699.16;5034149;28;20168;-73
2024/01/02 09:30:29;;;;;;;27.25;5.25;;;;;;;-144.73;100.00;54703.28;5037943;28;20116;-74
2024/01/02 09:32:55;;;;;;;26.27;5.20;;;;;;;-144.73;100.00;54727.91;5024488;28;20107;-72
2024/01/02 09:35:21;;;;;;;19.23;5.28;;;;;;;-144.73;100.00;54711.47;5014924;28;20465;-72
2024/01/02 09:37:46;;;;;;;28.85;4.85;;;;;;;-144.73;100.00;54760.75;5032510;28;20030;-73
2024/01/02 09:40:38;;;;;;;22.02;5.35;;;;;;;-144.73;100.00;54766.91;5017359;28;20029;-75
2024/01/02 09:43:31;;;;;;;;;;;;;;;-144.73;100.00;54756.66;5026801;28;20068;-73
2024/01/02 09:46:06;;;;;;;22.23;4.35;;;;;;;-144.73;100.00;54719.69;5032282;28;19976;-73
2024/01/02 09:48:49;;;;;;;21.15;4.93;;;;;;;-144.73;100.00;54688.91;5036016;28;20091;-75
2024/01/02 09:51:37;;;;;;;17.45;4.30;;;;;;;-144.73;100.00;54701.22;5037025;28;20136;-74
2024/01/02 09:54:11;;;;;;;21.38;4.60;;;;;;;-144.73;100.00;54756.66;5014530;28;20037;-72
2024/01/02 09:57:04;;;;;;;22.90;5.03;;;;;;;-144.73;100.00;54723.81;5019343;28;20044;-73
2024/01/02 09:59:48;;;;;;;19.40;4.65;;;;;;;-144.73;100.00;54697.13;5013659;28;20037;-73
2024/01/02 10:02:30;;;;;;;18.70;5.20;;;;;;;-144.73;100.00;54736.13;5039799;28;20044;-73
2024/01/02 10:05:11;;;;;;;;;;;;;;;-144.73;100.00;54690.97;5044949;28;20052;-72
2024/01/02 10:07:47;;;;;;;18.30;5.15;;;;;;;-144.73;100.00;54719.69;5034315;28;19928;-71
2024/01/02 10:10:24;;;;;;;13.55;4.72;;;;;;;-144.73;100.00;54752.53;5051867;28;20032;-72
2024/01/02 10:13:09;;;;;;;11.15;4.85;;;;;;;-144.73;100.00;54727.91;5032346;28;20040;-72
2024/01/02 10:15:45;;;;;;;15.85;5.05;;;;;;;-144.73;100.00;54699.16;5035224;28;20048;-72
2024/01/02 10:18:22;;;;;;;13.55;5.28;;;;;;;-144.73;100.00;54732.00;5050181;28;20033;-74
2024/01/02 10:21:25;;;;;;;19.20;5.05;;;;;;;-144.73;100.00;54756.66;5026230;28;20025;-73
2024/01/02 10:24:11;;;;;;;21.63;5.13;;;;;;;-144.73;100.00;54754.59;5025756;28;20112;-72
2024/01/02 10:26:44;;;;;;;13.23;4.70;;;;;;;-144.73;100.00;54711.47;5032966;28;20018;-74
2024/01/02 10:29:17;;;;;;;20.65;5.45;;;;;;;-144.73;100.00;54674.53;5048893;28;20030;-74
2024/01/02 10:31:59;;;;;;;13.80;5.00;;;;;;;-144.73;100.00;54752.53;5033291;28;20032;-73
2024/01/02 10:34:39;;;;;;;10.45;4.38;;;;;;;-144.73;100.00;54705.31;5045556;28;20094;-72
2024/01/02 10:37:06;;;;;;;22.70;4.82;;;;;;;-144.73;100.00;54744.31;5032086;28;20108;-72
2024/01/02 10:39:43;;;;;;;10.07;4.07;;;;;;;-144.73;100.00;54740.22;5033798;28;20029;-74
2024/01/02 10:42:33;;;;;;;8.95;4.43;;;;;;;-144.73;100.00;54756.66;5025686;28;20397;-74
2024/01/02 10:45:06;;;;;;;16.17;4.82;;;;;;;-144.73;100.00;54719.69;5028650;28;20034;-74
2024/01/02 10:47:55;;;;;;;11.70;4.50;;;;;;;-144.73;100.00;54771.00;5031227;28;20401;-74
2024/01/02 10:50:31;;;;;;;14.40;4.90;;;;;;;-144.73;100.00;54736.13;5011389;28;20036;-72
2024/01/02 10:53:14;;;;;;;12.77;4.38;;;;;;;-144.73;100.00;54719.69;5027012;28;20029;-72
2024/01/02 10:55:54;;;;;;;14.65;5.97;;;;;;;-144.73;100.00;54732.00;5034568;28;20024;-73
2024/01/02 10:58:23;;;;;;;17.85;4.38;;;;;;;-144.73;100.00;54727.91;5033981;28;20030;-74
2024/01/02 11:00:56;;;;;;;13.02;4.55;;;;;;;-144.73;100.00;54764.84;5025068;28;20498;-74
2024/01/02 11:03:27;;;;;;;15.02;3.95;;;;;;;-144.73;100.00;54727.91;5030699;28;20113;-73